sensor_id;sensor_type;location;lat;lon;timestamp;P1;durP1;ratioP1;P2;durP2;ratioP2
10511;SDS011;5304;48.604;2.096;2023-05-03T00:00:40;8.03;;;7.10;;
10511;SDS011;5304;48.604;2.096;2023-05-03T00:03:24;8.07;;;6.43;;
10511;SDS011;5304;48.604;2.096;2023-05-03T00:06:10;7.17;;;6.47;;
10511;SDS011;5304;48.604;2.096;2023-05-03T00:08:55;9.63;;;7.00;;
10511;SDS011;5304;48.604;2.096;2023-05-03T00:11:40;7.80;;;6.80;;
10511;SDS011;5304;48.604;2.096;2023-05-03T00:14:24;10.67;;;6.97;;
10511;SDS011;5304;48.604;2.096;2023-05-03T00:17:09;8.97;;;7.00;;
10511;SDS011;5304;48.604;2.096;2023-05-03T00:19:53;7.97;;;6.53;;
10511;SDS011;5304;48.604;2.096;2023-05-03T00:22:39;9.63;;;6.23;;
10511;SDS011;5304;48.604;2.096;2023-05-03T00:25:23;9.70;;;5.87;;
10511;SDS011;5304;48.604;2.096;2023-05-03T00:28:07;7.43;;;6.37;;
10511;SDS011;5304;48.604;2.096;2023-05-03T00:30:52;8.97;;;6.57;;
10511;SDS011;5304;48.604;2.096;2023-05-03T00:33:36;8.47;;;6.23;;
10511;SDS011;5304;48.604;2.096;2023-05-03T00:36:21;8.53;;;5.97;;
10511;SDS011;5304;48.604;2.096;2023-05-03T00:39:06;8.87;;;6.97;;
10511;SDS011;5304;48.604;2.096;2023-05-03T00:41:54;7.70;;;6.73;;
10511;SDS011;5304;48.604;2.096;2023-05-03T00:44:40;8.30;;;7.50;;
10511;SDS011;5304;48.604;2.096;2023-05-03T00:47:24;10.13;;;7.53;;
10511;SDS011;5304;48.604;2.096;2023-05-03T00:50:09;7.80;;;7.00;;
10511;SDS011;5304;48.604;2.096;2023-05-03T00:52:54;8.10;;;6.77;;
10511;SDS011;5304;48.604;2.096;2023-05-03T00:55:39;10.60;;;6.77;;
10511;SDS011;5304;48.604;2.096;2023-05-03T00:58:24;10.73;;;6.33;;
10511;SDS011;5304;48.604;2.096;2023-05-03T01:01:09;7.83;;;6.73;;
10511;SDS011;5304;48.604;2.096;2023-05-03T01:03:53;6.90;;;6.20;;
10511;SDS011;5304;48.604;2.096;2023-05-03T01:13:21;7.40;;;6.23;;
10511;SDS011;5304;48.604;2.096;2023-05-03T01:19:13;7.37;;;6.67;;
10511;SDS011;5304;48.604;2.096;2023-05-03T01:22:30;10.73;;;7.60;;
10511;SDS011;5304;48.604;2.096;2023-05-03T01:25:31;9.30;;;6.93;;
10511;SDS011;5304;48.604;2.096;2023-05-03T01:28:15;8.80;;;6.97;;
10511;SDS011;5304;48.604;2.096;2023-05-03T01:31:00;9.00;;;7.57;;
10511;SDS011;5304;48.604;2.096;2023-05-03T01:33:50;10.83;;;7.67;;
10511;SDS011;5304;48.604;2.096;2023-05-03T01:36:43;8.43;;;7.10;;
10511;SDS011;5304;48.604;2.096;2023-05-03T01:39:34;11.20;;;7.07;;
10511;SDS011;5304;48.604;2.096;2023-05-03T01:42:41;8.67;;;6.77;;
10511;SDS011;5304;48.604;2.096;2023-05-03T01:45:26;9.53;;;7.00;;
10511;SDS011;5304;48.604;2.096;2023-05-03T01:48:13;7.83;;;6.97;;
10511;SDS011;5304;48.604;2.096;2023-05-03T01:50:58;8.53;;;6.77;;
10511;SDS011;5304;48.604;2.096;2023-05-03T01:53:43;8.97;;;7.00;;
10511;SDS011;5304;48.604;2.096;2023-05-03T01:56:28;7.03;;;5.80;;
10511;SDS011;5304;48.604;2.096;2023-05-03T01:59:13;9.97;;;7.20;;
10511;SDS011;5304;48.604;2.096;2023-05-03T02:01:57;8.70;;;6.83;;
10511;SDS011;5304;48.604;2.096;2023-05-03T02:04:41;11.33;;;7.17;;
10511;SDS011;5304;48.604;2.096;2023-05-03T02:07:26;9.43;;;7.03;;
10511;SDS011;5304;48.604;2.096;2023-05-03T02:10:10;12.30;;;7.23;;
10511;SDS011;5304;48.604;2.096;2023-05-03T02:12:57;10.80;;;6.90;;
10511;SDS011;5304;48.604;2.096;2023-05-03T02:15:42;10.37;;;7.10;;
10511;SDS011;5304;48.604;2.096;2023-05-03T02:18:26;8.17;;;6.63;;
10511;SDS011;5304;48.604;2.096;2023-05-03T02:21:14;9.17;;;6.60;;
10511;SDS011;5304;48.604;2.096;2023-05-03T02:23:59;11.57;;;6.97;;
10511;SDS011;5304;48.604;2.096;2023-05-03T02:26:43;11.93;;;6.80;;
10511;SDS011;5304;48.604;2.096;2023-05-03T02:29:27;10.07;;;6.60;;
10511;SDS011;5304;48.604;2.096;2023-05-03T02:32:12;9.60;;;6.73;;
10511;SDS011;5304;48.604;2.096;2023-05-03T02:34:56;9.50;;;7.43;;
10511;SDS011;5304;48.604;2.096;2023-05-03T02:37:41;10.37;;;7.27;;
10511;SDS011;5304;48.604;2.096;2023-05-03T02:40:25;9.10;;;6.80;;
10511;SDS011;5304;48.604;2.096;2023-05-03T02:43:09;11.40;;;7.63;;
10511;SDS011;5304;48.604;2.096;2023-05-03T02:45:54;9.03;;;7.03;;
10511;SDS011;5304;48.604;2.096;2023-05-03T02:48:38;12.17;;;6.80;;
10511;SDS011;5304;48.604;2.096;2023-05-03T02:51:23;9.03;;;7.30;;
10511;SDS011;5304;48.604;2.096;2023-05-03T02:54:07;9.43;;;6.73;;
10511;SDS011;5304;48.604;2.096;2023-05-03T02:56:52;8.93;;;6.83;;
10511;SDS011;5304;48.604;2.096;2023-05-03T02:59:36;8.00;;;7.10;;
10511;SDS011;5304;48.604;2.096;2023-05-03T03:02:20;9.90;;;6.10;;
10511;SDS011;5304;48.604;2.096;2023-05-03T03:05:05;9.03;;;6.33;;
10511;SDS011;5304;48.604;2.096;2023-05-03T03:07:51;12.40;;;7.13;;
10511;SDS011;5304;48.604;2.096;2023-05-03T03:10:36;8.10;;;6.40;;
10511;SDS011;5304;48.604;2.096;2023-05-03T03:13:20;8.97;;;6.73;;
10511;SDS011;5304;48.604;2.096;2023-05-03T03:16:05;10.23;;;6.50;;
10511;SDS011;5304;48.604;2.096;2023-05-03T03:18:50;10.63;;;6.40;;
10511;SDS011;5304;48.604;2.096;2023-05-03T03:21:35;11.73;;;6.43;;
10511;SDS011;5304;48.604;2.096;2023-05-03T03:24:19;9.43;;;6.60;;
10511;SDS011;5304;48.604;2.096;2023-05-03T03:27:04;8.67;;;6.90;;
10511;SDS011;5304;48.604;2.096;2023-05-03T03:29:49;10.87;;;6.77;;
10511;SDS011;5304;48.604;2.096;2023-05-03T03:32:34;9.20;;;6.53;;
10511;SDS011;5304;48.604;2.096;2023-05-03T03:35:18;11.53;;;7.53;;
10511;SDS011;5304;48.604;2.096;2023-05-03T03:38:02;9.93;;;6.67;;
10511;SDS011;5304;48.604;2.096;2023-05-03T03:40:47;10.67;;;7.20;;
10511;SDS011;5304;48.604;2.096;2023-05-03T03:43:31;8.37;;;6.90;;
10511;SDS011;5304;48.604;2.096;2023-05-03T03:46:15;10.23;;;6.77;;
10511;SDS011;5304;48.604;2.096;2023-05-03T03:49:00;11.17;;;7.23;;
10511;SDS011;5304;48.604;2.096;2023-05-03T03:51:44;11.63;;;7.30;;
10511;SDS011;5304;48.604;2.096;2023-05-03T03:54:28;11.77;;;7.30;;
10511;SDS011;5304;48.604;2.096;2023-05-03T03:57:13;10.67;;;7.17;;
10511;SDS011;5304;48.604;2.096;2023-05-03T03:59:57;10.10;;;7.20;;
10511;SDS011;5304;48.604;2.096;2023-05-03T04:02:42;9.70;;;7.37;;
10511;SDS011;5304;48.604;2.096;2023-05-03T04:05:26;9.93;;;7.60;;
10511;SDS011;5304;48.604;2.096;2023-05-03T04:08:10;12.13;;;8.40;;
10511;SDS011;5304;48.604;2.096;2023-05-03T04:10:54;9.97;;;7.40;;
10511;SDS011;5304;48.604;2.096;2023-05-03T04:13:39;11.37;;;6.77;;
10511;SDS011;5304;48.604;2.096;2023-05-03T04:16:24;11.93;;;7.37;;
10511;SDS011;5304;48.604;2.096;2023-05-03T04:19:08;9.97;;;7.83;;
10511;SDS011;5304;48.604;2.096;2023-05-03T04:21:53;12.13;;;8.33;;
10511;SDS011;5304;48.604;2.096;2023-05-03T04:24:37;11.53;;;7.70;;
10511;SDS011;5304;48.604;2.096;2023-05-03T04:27:22;10.60;;;6.90;;
10511;SDS011;5304;48.604;2.096;2023-05-03T04:30:07;13.10;;;7.27;;
10511;SDS011;5304;48.604;2.096;2023-05-03T04:32:52;13.93;;;7.87;;
10511;SDS011;5304;48.604;2.096;2023-05-03T04:35:37;9.63;;;6.77;;
10511;SDS011;5304;48.604;2.096;2023-05-03T04:38:21;10.37;;;7.30;;
10511;SDS011;5304;48.604;2.096;2023-05-03T04:41:06;12.40;;;8.33;;
10511;SDS011;5304;48.604;2.096;2023-05-03T04:43:50;11.17;;;7.00;;
10511;SDS011;5304;48.604;2.096;2023-05-03T04:46:35;14.40;;;7.27;;
10511;SDS011;5304;48.604;2.096;2023-05-03T04:49:20;13.40;;;7.23;;
10511;SDS011;5304;48.604;2.096;2023-05-03T04:52:04;11.50;;;6.97;;
10511;SDS011;5304;48.604;2.096;2023-05-03T04:54:49;10.00;;;7.30;;
10511;SDS011;5304;48.604;2.096;2023-05-03T04:57:34;15.47;;;7.20;;
10511;SDS011;5304;48.604;2.096;2023-05-03T05:00:19;11.27;;;7.03;;
10511;SDS011;5304;48.604;2.096;2023-05-03T05:03:05;9.83;;;6.50;;
10511;SDS011;5304;48.604;2.096;2023-05-03T05:05:49;13.27;;;7.53;;
10511;SDS011;5304;48.604;2.096;2023-05-03T05:08:33;11.03;;;6.97;;
10511;SDS011;5304;48.604;2.096;2023-05-03T05:11:18;13.00;;;7.10;;
10511;SDS011;5304;48.604;2.096;2023-05-03T05:14:04;12.17;;;7.93;;
10511;SDS011;5304;48.604;2.096;2023-05-03T05:16:48;11.07;;;7.60;;
10511;SDS011;5304;48.604;2.096;2023-05-03T05:19:32;16.13;;;9.13;;
10511;SDS011;5304;48.604;2.096;2023-05-03T05:22:16;14.13;;;8.30;;
10511;SDS011;5304;48.604;2.096;2023-05-03T05:25:02;13.30;;;7.13;;
10511;SDS011;5304;48.604;2.096;2023-05-03T05:27:46;13.67;;;7.97;;
10511;SDS011;5304;48.604;2.096;2023-05-03T05:30:31;12.93;;;7.37;;
10511;SDS011;5304;48.604;2.096;2023-05-03T05:33:16;12.60;;;6.83;;
10511;SDS011;5304;48.604;2.096;2023-05-03T05:36:00;11.83;;;7.83;;
10511;SDS011;5304;48.604;2.096;2023-05-03T05:38:45;13.20;;;7.43;;
10511;SDS011;5304;48.604;2.096;2023-05-03T05:41:29;11.00;;;7.27;;
10511;SDS011;5304;48.604;2.096;2023-05-03T05:44:14;8.73;;;6.97;;
10511;SDS011;5304;48.604;2.096;2023-05-03T05:46:58;11.83;;;7.30;;
10511;SDS011;5304;48.604;2.096;2023-05-03T05:49:43;10.97;;;6.97;;
10511;SDS011;5304;48.604;2.096;2023-05-03T05:52:27;11.27;;;6.77;;
10511;SDS011;5304;48.604;2.096;2023-05-03T05:55:11;13.30;;;7.10;;
10511;SDS011;5304;48.604;2.096;2023-05-03T05:57:57;12.13;;;7.07;;
10511;SDS011;5304;48.604;2.096;2023-05-03T06:00:42;11.13;;;7.20;;
10511;SDS011;5304;48.604;2.096;2023-05-03T06:03:26;15.90;;;8.07;;
10511;SDS011;5304;48.604;2.096;2023-05-03T06:06:10;12.60;;;7.53;;
10511;SDS011;5304;48.604;2.096;2023-05-03T06:08:55;9.90;;;7.40;;
10511;SDS011;5304;48.604;2.096;2023-05-03T06:11:40;14.83;;;7.40;;
10511;SDS011;5304;48.604;2.096;2023-05-03T06:14:26;10.67;;;6.47;;
10511;SDS011;5304;48.604;2.096;2023-05-03T06:17:10;10.90;;;6.60;;
10511;SDS011;5304;48.604;2.096;2023-05-03T06:19:54;10.00;;;6.90;;
10511;SDS011;5304;48.604;2.096;2023-05-03T06:22:39;11.97;;;6.67;;
10511;SDS011;5304;48.604;2.096;2023-05-03T06:25:23;9.73;;;6.17;;
10511;SDS011;5304;48.604;2.096;2023-05-03T06:28:09;11.10;;;6.50;;
10511;SDS011;5304;48.604;2.096;2023-05-03T06:30:53;10.20;;;7.00;;
10511;SDS011;5304;48.604;2.096;2023-05-03T06:33:37;10.93;;;6.47;;
10511;SDS011;5304;48.604;2.096;2023-05-03T06:36:22;11.47;;;6.80;;
10511;SDS011;5304;48.604;2.096;2023-05-03T06:39:06;11.07;;;6.30;;
10511;SDS011;5304;48.604;2.096;2023-05-03T06:41:52;9.37;;;6.67;;
10511;SDS011;5304;48.604;2.096;2023-05-03T06:44:36;8.47;;;6.23;;
10511;SDS011;5304;48.604;2.096;2023-05-03T06:47:21;7.23;;;5.70;;
10511;SDS011;5304;48.604;2.096;2023-05-03T06:50:05;11.77;;;6.17;;
10511;SDS011;5304;48.604;2.096;2023-05-03T06:52:50;12.93;;;6.13;;
10511;SDS011;5304;48.604;2.096;2023-05-03T06:55:35;8.97;;;5.80;;
10511;SDS011;5304;48.604;2.096;2023-05-03T06:58:19;9.57;;;6.37;;
10511;SDS011;5304;48.604;2.096;2023-05-03T07:01:03;11.53;;;6.20;;
10511;SDS011;5304;48.604;2.096;2023-05-03T07:03:48;8.03;;;5.57;;
10511;SDS011;5304;48.604;2.096;2023-05-03T07:06:33;9.23;;;6.27;;
10511;SDS011;5304;48.604;2.096;2023-05-03T07:09:18;9.30;;;5.73;;
10511;SDS011;5304;48.604;2.096;2023-05-03T07:12:03;10.88;;;6.22;;
10511;SDS011;5304;48.604;2.096;2023-05-03T07:14:48;13.07;;;5.63;;
10511;SDS011;5304;48.604;2.096;2023-05-03T07:17:32;8.63;;;5.47;;
10511;SDS011;5304;48.604;2.096;2023-05-03T07:20:17;10.20;;;5.65;;
10511;SDS011;5304;48.604;2.096;2023-05-03T07:23:01;8.75;;;5.22;;
10511;SDS011;5304;48.604;2.096;2023-05-03T07:25:46;9.57;;;5.25;;
10511;SDS011;5304;48.604;2.096;2023-05-03T07:28:30;10.65;;;6.05;;
10511;SDS011;5304;48.604;2.096;2023-05-03T07:31:14;11.18;;;5.80;;
10511;SDS011;5304;48.604;2.096;2023-05-03T07:33:59;8.23;;;5.77;;
10511;SDS011;5304;48.604;2.096;2023-05-03T07:36:43;9.25;;;5.07;;
10511;SDS011;5304;48.604;2.096;2023-05-03T07:39:27;12.05;;;5.88;;
10511;SDS011;5304;48.604;2.096;2023-05-03T07:42:11;9.57;;;5.38;;
10511;SDS011;5304;48.604;2.096;2023-05-03T07:44:56;8.68;;;5.45;;
10511;SDS011;5304;48.604;2.096;2023-05-03T07:47:40;6.55;;;5.38;;
10511;SDS011;5304;48.604;2.096;2023-05-03T07:50:25;9.55;;;5.32;;
10511;SDS011;5304;48.604;2.096;2023-05-03T07:53:09;8.45;;;4.80;;
10511;SDS011;5304;48.604;2.096;2023-05-03T07:55:54;6.47;;;4.22;;
10511;SDS011;5304;48.604;2.096;2023-05-03T07:58:39;9.88;;;5.53;;
10511;SDS011;5304;48.604;2.096;2023-05-03T08:01:23;8.38;;;5.15;;
10511;SDS011;5304;48.604;2.096;2023-05-03T08:04:08;8.27;;;5.20;;
10511;SDS011;5304;48.604;2.096;2023-05-03T08:06:52;12.52;;;4.90;;
10511;SDS011;5304;48.604;2.096;2023-05-03T08:09:37;9.23;;;5.30;;
10511;SDS011;5304;48.604;2.096;2023-05-03T08:12:25;7.78;;;5.00;;
10511;SDS011;5304;48.604;2.096;2023-05-03T08:15:09;8.88;;;5.18;;
10511;SDS011;5304;48.604;2.096;2023-05-03T08:17:54;7.75;;;4.97;;
10511;SDS011;5304;48.604;2.096;2023-05-03T08:20:38;7.25;;;5.00;;
10511;SDS011;5304;48.604;2.096;2023-05-03T08:23:23;6.72;;;5.53;;
10511;SDS011;5304;48.604;2.096;2023-05-03T08:26:08;6.53;;;4.80;;
10511;SDS011;5304;48.604;2.096;2023-05-03T08:28:53;8.50;;;5.40;;
10511;SDS011;5304;48.604;2.096;2023-05-03T08:31:38;8.13;;;4.95;;
10511;SDS011;5304;48.604;2.096;2023-05-03T08:34:22;7.32;;;5.20;;
10511;SDS011;5304;48.604;2.096;2023-05-03T08:37:08;6.60;;;4.45;;
10511;SDS011;5304;48.604;2.096;2023-05-03T08:39:52;7.22;;;4.57;;
10511;SDS011;5304;48.604;2.096;2023-05-03T08:42:42;8.27;;;4.50;;
10511;SDS011;5304;48.604;2.096;2023-05-03T08:45:28;6.07;;;4.43;;
10511;SDS011;5304;48.604;2.096;2023-05-03T08:48:15;10.10;;;5.35;;
10511;SDS011;5304;48.604;2.096;2023-05-03T08:51:00;12.18;;;4.50;;
10511;SDS011;5304;48.604;2.096;2023-05-03T08:53:48;7.82;;;5.03;;
10511;SDS011;5304;48.604;2.096;2023-05-03T08:56:42;6.20;;;4.63;;
10511;SDS011;5304;48.604;2.096;2023-05-03T08:59:27;9.18;;;4.78;;
10511;SDS011;5304;48.604;2.096;2023-05-03T09:02:12;9.27;;;4.95;;
10511;SDS011;5304;48.604;2.096;2023-05-03T09:04:58;6.28;;;5.10;;
10511;SDS011;5304;48.604;2.096;2023-05-03T09:08:01;7.40;;;4.95;;
10511;SDS011;5304;48.604;2.096;2023-05-03T09:10:47;6.43;;;4.88;;
10511;SDS011;5304;48.604;2.096;2023-05-03T09:13:31;6.97;;;5.00;;
10511;SDS011;5304;48.604;2.096;2023-05-03T09:16:25;7.57;;;4.82;;
10511;SDS011;5304;48.604;2.096;2023-05-03T09:19:11;9.48;;;4.55;;
10511;SDS011;5304;48.604;2.096;2023-05-03T09:21:57;7.07;;;4.75;;
10511;SDS011;5304;48.604;2.096;2023-05-03T09:24:55;7.20;;;4.55;;
10511;SDS011;5304;48.604;2.096;2023-05-03T09:27:41;6.90;;;4.45;;
10511;SDS011;5304;48.604;2.096;2023-05-03T09:30:26;5.85;;;4.70;;
10511;SDS011;5304;48.604;2.096;2023-05-03T09:33:11;9.60;;;5.25;;
10511;SDS011;5304;48.604;2.096;2023-05-03T09:36:03;7.68;;;4.65;;
10511;SDS011;5304;48.604;2.096;2023-05-03T09:38:48;8.85;;;4.93;;
10511;SDS011;5304;48.604;2.096;2023-05-03T09:41:33;7.30;;;4.57;;
10511;SDS011;5304;48.604;2.096;2023-05-03T09:44:17;8.88;;;4.57;;
10511;SDS011;5304;48.604;2.096;2023-05-03T09:47:02;7.05;;;4.63;;
10511;SDS011;5304;48.604;2.096;2023-05-03T09:49:47;10.95;;;4.80;;
10511;SDS011;5304;48.604;2.096;2023-05-03T09:52:31;5.03;;;4.05;;
10511;SDS011;5304;48.604;2.096;2023-05-03T09:55:16;6.13;;;4.78;;
10511;SDS011;5304;48.604;2.096;2023-05-03T09:58:01;4.72;;;4.20;;
10511;SDS011;5304;48.604;2.096;2023-05-03T10:00:49;7.47;;;4.35;;
10511;SDS011;5304;48.604;2.096;2023-05-03T10:03:44;8.50;;;3.97;;
10511;SDS011;5304;48.604;2.096;2023-05-03T10:06:34;5.93;;;4.32;;
10511;SDS011;5304;48.604;2.096;2023-05-03T10:12:41;4.18;;;3.78;;
10511;SDS011;5304;48.604;2.096;2023-05-03T10:15:26;4.97;;;4.10;;
10511;SDS011;5304;48.604;2.096;2023-05-03T10:18:12;4.63;;;4.22;;
10511;SDS011;5304;48.604;2.096;2023-05-03T10:21:19;7.78;;;3.58;;
10511;SDS011;5304;48.604;2.096;2023-05-03T10:24:17;8.15;;;4.50;;
10511;SDS011;5304;48.604;2.096;2023-05-03T10:27:05;6.13;;;3.97;;
10511;SDS011;5304;48.604;2.096;2023-05-03T10:29:50;8.02;;;3.97;;
10511;SDS011;5304;48.604;2.096;2023-05-03T10:32:36;5.43;;;3.88;;
10511;SDS011;5304;48.604;2.096;2023-05-03T10:35:27;5.03;;;3.90;;
10511;SDS011;5304;48.604;2.096;2023-05-03T10:38:13;6.70;;;3.60;;
10511;SDS011;5304;48.604;2.096;2023-05-03T10:41:07;4.75;;;3.95;;
10511;SDS011;5304;48.604;2.096;2023-05-03T10:43:51;4.57;;;3.70;;
10511;SDS011;5304;48.604;2.096;2023-05-03T10:46:35;7.28;;;3.40;;
10511;SDS011;5304;48.604;2.096;2023-05-03T10:49:22;5.13;;;3.35;;
10511;SDS011;5304;48.604;2.096;2023-05-03T10:52:43;5.00;;;3.47;;
10511;SDS011;5304;48.604;2.096;2023-05-03T10:55:21;7.07;;;3.47;;
10511;SDS011;5304;48.604;2.096;2023-05-03T10:58:09;5.95;;;3.72;;
10511;SDS011;5304;48.604;2.096;2023-05-03T11:00:57;4.88;;;3.38;;
10511;SDS011;5304;48.604;2.096;2023-05-03T11:03:50;4.20;;;2.88;;
10511;SDS011;5304;48.604;2.096;2023-05-03T11:06:36;4.78;;;3.28;;
10511;SDS011;5304;48.604;2.096;2023-05-03T11:09:30;5.38;;;3.72;;
10511;SDS011;5304;48.604;2.096;2023-05-03T11:12:16;3.70;;;3.20;;
10511;SDS011;5304;48.604;2.096;2023-05-03T11:15:00;4.03;;;3.05;;
10511;SDS011;5304;48.604;2.096;2023-05-03T11:17:45;3.85;;;2.90;;
10511;SDS011;5304;48.604;2.096;2023-05-03T11:20:29;3.78;;;3.38;;
10511;SDS011;5304;48.604;2.096;2023-05-03T11:23:13;5.93;;;3.50;;
10511;SDS011;5304;48.604;2.096;2023-05-03T11:25:58;5.15;;;3.22;;
10511;SDS011;5304;48.604;2.096;2023-05-03T11:28:43;5.53;;;2.83;;
10511;SDS011;5304;48.604;2.096;2023-05-03T11:31:27;4.20;;;3.50;;
10511;SDS011;5304;48.604;2.096;2023-05-03T11:34:12;3.85;;;2.80;;
10511;SDS011;5304;48.604;2.096;2023-05-03T11:36:58;2.92;;;2.63;;
10511;SDS011;5304;48.604;2.096;2023-05-03T11:39:43;4.72;;;3.17;;
10511;SDS011;5304;48.604;2.096;2023-05-03T11:42:30;4.20;;;3.20;;
10511;SDS011;5304;48.604;2.096;2023-05-03T11:45:14;4.60;;;3.33;;
10511;SDS011;5304;48.604;2.096;2023-05-03T11:47:59;4.60;;;3.42;;
10511;SDS011;5304;48.604;2.096;2023-05-03T11:50:44;3.35;;;2.80;;
10511;SDS011;5304;48.604;2.096;2023-05-03T11:53:30;5.43;;;3.65;;
10511;SDS011;5304;48.604;2.096;2023-05-03T11:56:15;4.72;;;3.22;;
10511;SDS011;5304;48.604;2.096;2023-05-03T11:59:03;3.67;;;3.28;;
10511;SDS011;5304;48.604;2.096;2023-05-03T12:01:47;8.20;;;5.88;;
10511;SDS011;5304;48.604;2.096;2023-05-03T12:04:35;5.80;;;4.18;;
10511;SDS011;5304;48.604;2.096;2023-05-03T12:07:23;5.30;;;3.00;;
10511;SDS011;5304;48.604;2.096;2023-05-03T12:10:15;5.68;;;3.15;;
10511;SDS011;5304;48.604;2.096;2023-05-03T12:13:01;3.97;;;3.40;;
10511;SDS011;5304;48.604;2.096;2023-05-03T12:15:54;6.20;;;4.10;;
10511;SDS011;5304;48.604;2.096;2023-05-03T12:18:47;6.30;;;3.83;;
10511;SDS011;5304;48.604;2.096;2023-05-03T12:21:46;7.68;;;3.45;;
10511;SDS011;5304;48.604;2.096;2023-05-03T12:24:31;4.93;;;3.92;;
10511;SDS011;5304;48.604;2.096;2023-05-03T12:27:16;5.22;;;3.65;;
10511;SDS011;5304;48.604;2.096;2023-05-03T12:30:00;5.95;;;3.05;;
10511;SDS011;5304;48.604;2.096;2023-05-03T12:32:44;5.15;;;3.22;;
10511;SDS011;5304;48.604;2.096;2023-05-03T12:35:29;5.80;;;3.70;;
10511;SDS011;5304;48.604;2.096;2023-05-03T12:38:14;5.85;;;3.33;;
10511;SDS011;5304;48.604;2.096;2023-05-03T12:40:58;3.67;;;2.92;;
10511;SDS011;5304;48.604;2.096;2023-05-03T12:43:43;3.92;;;2.97;;
10511;SDS011;5304;48.604;2.096;2023-05-03T12:46:27;5.88;;;3.05;;
10511;SDS011;5304;48.604;2.096;2023-05-03T12:49:11;4.18;;;3.15;;
10511;SDS011;5304;48.604;2.096;2023-05-03T12:51:56;4.30;;;3.30;;
10511;SDS011;5304;48.604;2.096;2023-05-03T12:54:43;4.05;;;3.40;;
10511;SDS011;5304;48.604;2.096;2023-05-03T12:57:29;4.60;;;3.00;;
10511;SDS011;5304;48.604;2.096;2023-05-03T13:00:14;4.05;;;2.90;;
10511;SDS011;5304;48.604;2.096;2023-05-03T13:03:00;6.10;;;3.13;;
10511;SDS011;5304;48.604;2.096;2023-05-03T13:05:44;4.93;;;3.45;;
10511;SDS011;5304;48.604;2.096;2023-05-03T13:08:30;4.25;;;3.20;;
10511;SDS011;5304;48.604;2.096;2023-05-03T13:11:15;3.40;;;3.08;;
10511;SDS011;5304;48.604;2.096;2023-05-03T13:14:01;4.97;;;3.50;;
10511;SDS011;5304;48.604;2.096;2023-05-03T13:16:46;4.95;;;3.40;;
10511;SDS011;5304;48.604;2.096;2023-05-03T13:19:34;3.35;;;3.00;;
10511;SDS011;5304;48.604;2.096;2023-05-03T13:22:19;4.93;;;3.40;;
10511;SDS011;5304;48.604;2.096;2023-05-03T13:25:04;5.40;;;3.50;;
10511;SDS011;5304;48.604;2.096;2023-05-03T13:27:49;5.85;;;3.35;;
10511;SDS011;5304;48.604;2.096;2023-05-03T13:30:35;7.28;;;3.85;;
10511;SDS011;5304;48.604;2.096;2023-05-03T13:33:20;4.28;;;3.38;;
10511;SDS011;5304;48.604;2.096;2023-05-03T13:36:04;4.07;;;3.30;;
10511;SDS011;5304;48.604;2.096;2023-05-03T13:38:49;4.07;;;3.05;;
10511;SDS011;5304;48.604;2.096;2023-05-03T13:41:34;7.07;;;2.97;;
10511;SDS011;5304;48.604;2.096;2023-05-03T13:44:21;4.13;;;3.05;;
10511;SDS011;5304;48.604;2.096;2023-05-03T13:47:08;3.65;;;3.05;;
10511;SDS011;5304;48.604;2.096;2023-05-03T13:49:54;3.92;;;2.85;;
10511;SDS011;5304;48.604;2.096;2023-05-03T13:52:39;4.13;;;3.00;;
10511;SDS011;5304;48.604;2.096;2023-05-03T13:55:25;4.18;;;3.03;;
10511;SDS011;5304;48.604;2.096;2023-05-03T13:58:09;5.05;;;3.00;;
10511;SDS011;5304;48.604;2.096;2023-05-03T14:00:54;5.55;;;2.80;;
10511;SDS011;5304;48.604;2.096;2023-05-03T14:03:38;4.82;;;3.00;;
10511;SDS011;5304;48.604;2.096;2023-05-03T14:06:23;4.13;;;2.80;;
10511;SDS011;5304;48.604;2.096;2023-05-03T14:09:09;6.78;;;2.78;;
10511;SDS011;5304;48.604;2.096;2023-05-03T14:11:54;3.08;;;2.78;;
10511;SDS011;5304;48.604;2.096;2023-05-03T14:14:39;4.85;;;2.80;;
10511;SDS011;5304;48.604;2.096;2023-05-03T14:17:23;3.65;;;2.90;;
10511;SDS011;5304;48.604;2.096;2023-05-03T14:20:08;5.97;;;3.10;;
10511;SDS011;5304;48.604;2.096;2023-05-03T14:22:54;4.63;;;2.88;;
10511;SDS011;5304;48.604;2.096;2023-05-03T14:25:39;3.83;;;2.72;;
10511;SDS011;5304;48.604;2.096;2023-05-03T14:28:23;4.45;;;2.70;;
10511;SDS011;5304;48.604;2.096;2023-05-03T14:31:08;2.95;;;2.67;;
10511;SDS011;5304;48.604;2.096;2023-05-03T14:33:52;2.78;;;2.50;;
10511;SDS011;5304;48.604;2.096;2023-05-03T14:36:37;3.65;;;2.75;;
10511;SDS011;5304;48.604;2.096;2023-05-03T14:39:26;2.92;;;2.45;;
10511;SDS011;5304;48.604;2.096;2023-05-03T14:42:10;3.60;;;2.75;;
10511;SDS011;5304;48.604;2.096;2023-05-03T14:44:55;3.17;;;2.60;;
10511;SDS011;5304;48.604;2.096;2023-05-03T14:47:39;3.97;;;2.72;;
10511;SDS011;5304;48.604;2.096;2023-05-03T14:50:24;3.10;;;2.50;;
10511;SDS011;5304;48.604;2.096;2023-05-03T14:53:09;4.13;;;3.10;;
10511;SDS011;5304;48.604;2.096;2023-05-03T14:55:53;2.85;;;2.50;;
10511;SDS011;5304;48.604;2.096;2023-05-03T14:58:38;3.63;;;2.42;;
10511;SDS011;5304;48.604;2.096;2023-05-03T15:01:23;3.40;;;2.67;;
10511;SDS011;5304;48.604;2.096;2023-05-03T15:04:07;3.75;;;2.63;;
10511;SDS011;5304;48.604;2.096;2023-05-03T15:06:53;3.92;;;2.65;;
10511;SDS011;5304;48.604;2.096;2023-05-03T15:09:38;3.65;;;2.70;;
10511;SDS011;5304;48.604;2.096;2023-05-03T15:12:22;2.85;;;2.55;;
10511;SDS011;5304;48.604;2.096;2023-05-03T15:15:07;2.97;;;2.53;;
10511;SDS011;5304;48.604;2.096;2023-05-03T15:17:54;4.25;;;2.50;;
10511;SDS011;5304;48.604;2.096;2023-05-03T15:20:39;2.63;;;2.42;;
10511;SDS011;5304;48.604;2.096;2023-05-03T15:23:24;4.55;;;2.78;;
10511;SDS011;5304;48.604;2.096;2023-05-03T15:26:09;5.05;;;2.72;;
10511;SDS011;5304;48.604;2.096;2023-05-03T15:28:54;4.50;;;2.60;;
10511;SDS011;5304;48.604;2.096;2023-05-03T15:31:38;4.45;;;3.05;;
10511;SDS011;5304;48.604;2.096;2023-05-03T15:34:22;4.45;;;3.17;;
10511;SDS011;5304;48.604;2.096;2023-05-03T15:37:07;4.45;;;3.17;;
10511;SDS011;5304;48.604;2.096;2023-05-03T15:39:54;4.35;;;3.30;;
10511;SDS011;5304;48.604;2.096;2023-05-03T15:42:39;5.95;;;3.03;;
10511;SDS011;5304;48.604;2.096;2023-05-03T15:45:23;4.63;;;3.22;;
10511;SDS011;5304;48.604;2.096;2023-05-03T15:48:10;4.65;;;3.38;;
10511;SDS011;5304;48.604;2.096;2023-05-03T15:50:55;3.45;;;2.92;;
10511;SDS011;5304;48.604;2.096;2023-05-03T15:53:39;3.88;;;3.10;;
10511;SDS011;5304;48.604;2.096;2023-05-03T15:56:24;5.35;;;3.10;;
10511;SDS011;5304;48.604;2.096;2023-05-03T15:59:10;4.18;;;2.90;;
10511;SDS011;5304;48.604;2.096;2023-05-03T16:01:57;5.50;;;3.45;;
10511;SDS011;5304;48.604;2.096;2023-05-03T16:04:41;5.07;;;3.50;;
10511;SDS011;5304;48.604;2.096;2023-05-03T16:07:26;4.50;;;2.90;;
10511;SDS011;5304;48.604;2.096;2023-05-03T16:10:11;5.10;;;3.30;;
10511;SDS011;5304;48.604;2.096;2023-05-03T16:12:55;3.08;;;2.80;;
10511;SDS011;5304;48.604;2.096;2023-05-03T16:15:40;5.63;;;3.20;;
10511;SDS011;5304;48.604;2.096;2023-05-03T16:18:24;3.55;;;2.88;;
10511;SDS011;5304;48.604;2.096;2023-05-03T16:21:09;3.55;;;3.10;;
10511;SDS011;5304;48.604;2.096;2023-05-03T16:23:54;4.18;;;2.72;;
10511;SDS011;5304;48.604;2.096;2023-05-03T16:26:39;5.07;;;3.20;;
10511;SDS011;5304;48.604;2.096;2023-05-03T16:29:23;3.45;;;2.53;;
10511;SDS011;5304;48.604;2.096;2023-05-03T16:32:08;5.40;;;3.00;;
10511;SDS011;5304;48.604;2.096;2023-05-03T16:34:53;4.82;;;2.85;;
10511;SDS011;5304;48.604;2.096;2023-05-03T16:37:37;3.92;;;2.88;;
10511;SDS011;5304;48.604;2.096;2023-05-03T16:40:23;4.75;;;3.22;;
10511;SDS011;5304;48.604;2.096;2023-05-03T16:43:07;4.00;;;2.92;;
10511;SDS011;5304;48.604;2.096;2023-05-03T16:45:55;8.35;;;3.25;;
10511;SDS011;5304;48.604;2.096;2023-05-03T16:48:42;4.15;;;3.00;;
10511;SDS011;5304;48.604;2.096;2023-05-03T16:51:27;5.40;;;2.75;;
10511;SDS011;5304;48.604;2.096;2023-05-03T16:54:11;4.45;;;2.70;;
10511;SDS011;5304;48.604;2.096;2023-05-03T16:56:58;5.57;;;2.85;;
10511;SDS011;5304;48.604;2.096;2023-05-03T16:59:44;4.25;;;2.90;;
10511;SDS011;5304;48.604;2.096;2023-05-03T17:02:28;3.80;;;2.67;;